createdAt,value
2023-04-11T00:02:05.048Z,11.10
2023-04-11T00:04:34.346Z,11.10
2023-04-11T00:07:02.908Z,11.10
2023-04-11T00:09:31.307Z,11.10
2023-04-11T00:11:59.551Z,11.10
2023-04-11T00:14:32.373Z,11.00
2023-04-11T00:17:01.201Z,11.10
2023-04-11T00:19:29.686Z,11.00
2023-04-11T00:21:58.740Z,11.00
2023-04-11T00:24:31.138Z,11.00
2023-04-11T00:26:59.665Z,11.00
2023-04-11T00:29:29.625Z,11.00
2023-04-11T00:31:58.070Z,10.90
2023-04-11T00:34:26.625Z,10.90
2023-04-11T00:36:55.204Z,10.90
2023-04-11T00:39:26.630Z,10.90
2023-04-11T00:41:55.039Z,10.80
2023-04-11T00:44:25.656Z,10.80
2023-04-11T00:46:55.668Z,10.70
2023-04-11T00:49:24.074Z,10.70
2023-04-11T00:51:53.165Z,10.70
2023-04-11T00:54:21.435Z,10.70
2023-04-11T00:56:49.935Z,10.70
2023-04-11T00:59:18.369Z,10.60
2023-04-11T01:01:46.768Z,10.60
2023-04-11T01:04:18.005Z,10.60
2023-04-11T01:06:49.991Z,10.50
2023-04-11T01:09:19.603Z,10.50
2023-04-11T01:11:48.741Z,10.50
2023-04-11T01:14:17.886Z,10.40
2023-04-11T01:16:48.570Z,10.40
2023-04-11T01:19:22.525Z,10.40
2023-04-11T01:21:53.490Z,10.50
2023-04-11T01:24:24.350Z,10.40
2023-04-11T01:26:52.838Z,10.40
2023-04-11T01:29:21.255Z,10.50
2023-04-11T01:31:50.432Z,10.50
2023-04-11T01:34:20.170Z,10.50
2023-04-11T01:36:49.620Z,10.50
2023-04-11T01:39:17.926Z,10.50
2023-04-11T01:41:47.873Z,10.50
2023-04-11T01:44:16.567Z,10.50
2023-04-11T01:46:45.378Z,10.50
2023-04-11T01:49:16.811Z,10.40
2023-04-11T01:51:45.185Z,10.40
2023-04-11T01:54:13.501Z,10.40
2023-04-11T01:56:41.848Z,10.30
2023-04-11T01:59:11.718Z,10.30
2023-04-11T02:01:40.654Z,10.30
2023-04-11T02:04:09.111Z,10.30
2023-04-11T02:06:38.603Z,10.40
2023-04-11T02:09:06.923Z,10.30
2023-04-11T02:11:35.507Z,10.40
2023-04-11T02:14:04.021Z,10.40
2023-04-11T02:16:33.838Z,10.40
2023-04-11T02:19:03.840Z,10.30
2023-04-11T02:21:32.070Z,10.30
2023-04-11T02:24:00.853Z,10.30
2023-04-11T02:26:29.300Z,10.30
2023-04-11T02:28:57.780Z,10.30
2023-04-11T02:31:26.472Z,10.30
2023-04-11T02:33:56.153Z,10.70
2023-04-11T02:36:24.469Z,10.30
2023-04-11T02:38:52.697Z,10.00
2023-04-11T02:41:21.148Z,10.30
2023-04-11T02:43:49.356Z,10.20
2023-04-11T02:46:17.622Z,10.20
2023-04-11T02:48:45.877Z,10.20
2023-04-11T02:51:15.496Z,10.30
2023-04-11T02:53:43.732Z,10.20
2023-04-11T02:56:12.036Z,10.20
2023-04-11T02:58:42.039Z,10.20
2023-04-11T03:01:12.152Z,10.20
2023-04-11T03:03:40.594Z,10.20
2023-04-11T03:06:09.545Z,10.20
2023-04-11T03:08:39.286Z,10.20
2023-04-11T03:11:07.844Z,10.20
2023-04-11T03:13:37.724Z,10.00
2023-04-11T03:16:06.927Z,10.20
2023-04-11T03:18:35.394Z,10.20
2023-04-11T03:21:03.692Z,10.20
2023-04-11T03:23:32.518Z,10.10
2023-04-11T03:26:03.068Z,10.10
2023-04-11T03:28:31.366Z,10.10
2023-04-11T03:30:59.796Z,10.10
2023-04-11T03:33:28.070Z,10.10
2023-04-11T03:35:56.450Z,10.10
2023-04-11T03:38:25.156Z,10.20
2023-04-11T03:40:54.123Z,10.10
2023-04-11T03:43:24.780Z,10.10
2023-04-11T03:45:53.500Z,10.10
2023-04-11T03:48:21.934Z,10.20
2023-04-11T03:50:50.315Z,10.20
2023-04-11T03:53:18.511Z,10.20
2023-04-11T03:55:46.878Z,10.20
2023-04-11T03:58:15.923Z,10.20
2023-04-11T04:00:46.566Z,10.20
2023-04-11T04:03:15.353Z,10.20
2023-04-11T04:05:43.482Z,10.20
2023-04-11T04:08:11.586Z,10.20
2023-04-11T04:10:39.582Z,10.20
2023-04-11T04:13:07.601Z,10.20
2023-04-11T04:15:35.714Z,10.20
2023-04-11T04:18:05.451Z,10.20
2023-04-11T04:20:33.710Z,10.20
2023-04-11T04:23:04.526Z,10.20
2023-04-11T04:25:32.601Z,10.10
2023-04-11T04:28:01.041Z,10.00
2023-04-11T04:30:29.598Z,9.80
2023-04-11T04:32:58.873Z,9.60
2023-04-11T04:35:28.616Z,9.40
2023-04-11T04:37:56.761Z,9.20
2023-04-11T04:40:26.107Z,9.00
2023-04-11T04:42:58.576Z,8.80
2023-04-11T04:45:26.912Z,8.60
2023-04-11T04:47:54.927Z,8.50
2023-04-11T04:50:23.090Z,8.30
2023-04-11T04:52:52.463Z,8.20
2023-04-11T04:55:20.760Z,8.10
2023-04-11T04:57:48.770Z,8.00
2023-04-11T05:00:17.230Z,7.80
2023-04-11T05:02:45.361Z,7.80
2023-04-11T05:05:14.041Z,7.80
2023-04-11T05:07:42.511Z,7.80
2023-04-11T05:10:12.278Z,7.70
2023-04-11T05:12:40.533Z,7.70
2023-04-11T05:15:11.537Z,7.60
2023-04-11T05:17:39.667Z,7.60
2023-04-11T05:20:09.107Z,7.70
2023-04-11T05:22:37.941Z,7.60
2023-04-11T05:25:09.003Z,7.60
2023-04-11T05:27:38.495Z,7.50
2023-04-11T05:30:07.811Z,7.60
2023-04-11T05:32:35.907Z,7.60
2023-04-11T05:35:04.093Z,7.60
2023-04-11T05:37:32.353Z,7.70
2023-04-11T05:40:00.689Z,7.70
2023-04-11T05:42:28.858Z,7.70
2023-04-11T05:44:58.235Z,7.70
2023-04-11T05:47:26.285Z,7.70
2023-04-11T05:49:54.382Z,7.80
2023-04-11T05:52:22.562Z,7.80
2023-04-11T05:54:50.755Z,7.90
2023-04-11T05:57:18.818Z,7.90
2023-04-11T05:59:49.764Z,7.90
2023-04-11T06:02:19.666Z,7.50
2023-04-11T06:04:47.878Z,7.90
2023-04-11T06:07:16.457Z,7.90
2023-04-11T06:09:44.551Z,8.10
2023-04-11T06:12:12.834Z,8.10
2023-04-11T06:14:41.014Z,8.20
2023-04-11T06:17:09.633Z,8.30
2023-04-11T06:19:39.377Z,8.90
2023-04-11T06:22:07.537Z,8.30
2023-04-11T06:24:37.102Z,8.40
2023-04-11T06:27:05.858Z,8.50
2023-04-11T06:29:34.003Z,8.60
2023-04-11T06:32:02.293Z,8.60
2023-04-11T06:34:30.402Z,8.60
2023-04-11T06:36:59.923Z,8.60
2023-04-11T06:39:28.025Z,8.60
2023-04-11T06:41:56.507Z,8.60
2023-04-11T06:44:24.793Z,8.50
2023-04-11T06:46:53.121Z,8.60
2023-04-11T06:49:21.310Z,8.50
2023-04-11T06:51:50.315Z,8.40
2023-04-11T06:54:20.135Z,8.40
2023-04-11T06:56:50.656Z,8.40
2023-04-11T06:59:20.540Z,8.40
2023-04-11T07:01:50.039Z,8.50
2023-04-11T07:04:18.611Z,8.60
2023-04-11T07:06:46.997Z,8.80
2023-04-11T07:09:15.247Z,8.70
2023-04-11T07:11:45.116Z,8.90
2023-04-11T07:14:13.508Z,8.90
2023-04-11T07:16:41.763Z,8.80
2023-04-11T07:19:09.861Z,8.80
2023-04-11T07:21:38.423Z,8.80
2023-04-11T07:24:07.351Z,8.80
2023-04-11T07:26:38.573Z,8.90
2023-04-11T07:29:10.388Z,8.90
2023-04-11T07:31:40.786Z,9.10
2023-04-11T07:34:08.977Z,9.30
2023-04-11T07:36:37.088Z,9.20
2023-04-11T07:39:09.296Z,9.20
2023-04-11T07:41:37.647Z,9.00
2023-04-11T07:44:09.487Z,9.20
2023-04-11T07:46:37.624Z,9.40
2023-04-11T07:49:05.719Z,9.50
2023-04-11T07:51:33.896Z,9.60
2023-04-11T07:54:02.063Z,9.80
2023-04-11T07:56:30.119Z,10.00
2023-04-11T07:58:58.625Z,9.80
2023-04-11T08:01:29.356Z,9.70
2023-04-11T08:03:58.473Z,9.70
2023-04-11T08:06:29.190Z,9.70
2023-04-11T08:09:00.944Z,9.50
2023-04-11T08:11:29.262Z,9.50
2023-04-11T08:13:57.565Z,9.40
2023-04-11T08:16:25.993Z,9.40
2023-04-11T08:18:57.279Z,9.40
2023-04-11T08:21:25.687Z,9.40
2023-04-11T08:23:54.118Z,9.40
2023-04-11T08:26:22.438Z,9.30
2023-04-11T08:28:50.731Z,9.20
2023-04-11T08:31:19.503Z,9.10
2023-04-11T08:33:48.136Z,9.00
2023-04-11T08:36:17.793Z,9.10
2023-04-11T08:38:46.107Z,9.00
2023-04-11T08:41:14.527Z,9.00
2023-04-11T08:43:44.235Z,8.80
2023-04-11T08:46:13.080Z,8.80
2023-04-11T08:48:41.330Z,8.70
2023-04-11T08:51:09.685Z,8.80
2023-04-11T08:53:40.185Z,8.80
2023-04-11T08:56:16.170Z,8.90
2023-04-11T08:58:44.348Z,8.90
2023-04-11T09:01:29.841Z,9.00
2023-04-11T09:03:58.642Z,9.20
2023-04-11T09:06:30.774Z,9.30
2023-04-11T09:09:01.318Z,9.40
2023-04-11T09:11:29.601Z,9.50
2023-04-11T09:14:08.501Z,9.50
2023-04-11T09:16:37.652Z,9.60
2023-04-11T09:19:23.931Z,9.50
2023-04-11T09:21:52.121Z,9.60
2023-04-11T09:24:22.767Z,9.90
2023-04-11T09:26:52.068Z,10.10
2023-04-11T09:29:38.167Z,10.30
2023-04-11T09:32:06.695Z,10.60
2023-04-11T09:34:37.650Z,10.80
2023-04-11T09:37:06.500Z,11.00
2023-04-11T09:39:36.346Z,10.70
2023-04-11T09:42:24.656Z,11.00
2023-04-11T09:44:52.886Z,11.20
2023-04-11T09:47:21.447Z,11.10
2023-04-11T09:49:49.844Z,10.80
2023-04-11T09:52:19.824Z,11.10
2023-04-11T09:54:50.770Z,11.30
2023-04-11T09:57:20.547Z,11.30
2023-04-11T09:59:49.121Z,11.20
2023-04-11T10:02:17.310Z,11.40
2023-04-11T10:04:45.701Z,11.60
2023-04-11T10:07:16.979Z,11.90
2023-04-11T10:09:48.680Z,12.00
2023-04-11T10:12:32.108Z,11.90
2023-04-11T10:15:08.306Z,12.10
2023-04-11T10:17:37.653Z,12.40
2023-04-11T10:20:45.043Z,12.60
2023-04-11T10:23:14.065Z,12.70
2023-04-11T10:26:09.731Z,12.80
2023-04-11T10:28:39.432Z,13.10
2023-04-11T10:31:10.115Z,13.40
2023-04-11T10:33:39.700Z,13.40
2023-04-11T10:36:10.526Z,13.40
2023-04-11T10:38:49.724Z,13.40
2023-04-11T10:41:34.306Z,13.50
2023-04-11T10:44:21.119Z,13.50
2023-04-11T10:46:51.832Z,13.40
2023-04-11T10:49:37.890Z,13.30
2023-04-11T10:52:18.699Z,13.30
2023-04-11T10:54:47.323Z,13.10
2023-04-11T10:57:17.582Z,12.80
2023-04-11T11:00:02.015Z,12.30
2023-04-11T11:02:41.034Z,11.40
2023-04-11T11:05:20.601Z,10.50
2023-04-11T11:07:54.019Z,9.90
2023-04-11T11:10:44.246Z,9.80
2023-04-11T11:13:16.951Z,9.80
2023-04-11T11:15:49.440Z,9.80
2023-04-11T11:18:19.159Z,10.10
2023-04-11T11:20:47.565Z,10.40
2023-04-11T11:23:16.015Z,10.40
2023-04-11T11:25:54.020Z,10.50
2023-04-11T11:28:23.950Z,10.30
2023-04-11T11:30:55.009Z,10.30
2023-04-11T11:33:26.435Z,10.20
2023-04-11T11:35:57.860Z,10.50
2023-04-11T11:38:30.244Z,10.80
2023-04-11T11:40:59.454Z,10.90
2023-04-11T11:43:29.546Z,10.80
2023-04-11T11:46:14.423Z,10.90
2023-04-11T11:48:44.630Z,11.00
2023-04-11T11:51:12.832Z,10.90
2023-04-11T11:53:41.028Z,11.10
2023-04-11T11:56:16.443Z,11.30
2023-04-11T11:58:46.392Z,11.60
2023-04-11T12:01:18.217Z,12.10
2023-04-11T12:03:51.565Z,12.40
2023-04-11T12:06:20.296Z,12.70
2023-04-11T12:08:52.020Z,12.70
2023-04-11T12:11:20.679Z,12.80
2023-04-11T12:13:55.071Z,12.80
2023-04-11T12:16:23.968Z,12.90
2023-04-11T12:18:52.328Z,13.00
2023-04-11T12:21:20.719Z,13.10
2023-04-11T12:23:48.911Z,13.10
2023-04-11T12:26:17.796Z,13.10
2023-04-11T12:28:45.963Z,13.20
2023-04-11T12:31:15.716Z,13.30
2023-04-11T12:33:44.020Z,13.30
2023-04-11T12:36:13.942Z,13.40
2023-04-11T12:38:42.288Z,13.60
2023-04-11T12:41:30.763Z,13.70
2023-04-11T12:44:01.640Z,13.80
2023-04-11T12:46:33.346Z,14.10
2023-04-11T12:49:01.603Z,14.00
2023-04-11T12:51:29.857Z,14.10
2023-04-11T12:53:58.188Z,14.20
2023-04-11T12:56:26.967Z,14.30
2023-04-11T12:58:55.384Z,14.60
2023-04-11T13:01:23.702Z,14.60
2023-04-11T13:03:53.449Z,14.60
2023-04-11T13:06:23.323Z,14.30
2023-04-11T13:08:51.559Z,13.80
2023-04-11T13:11:19.759Z,13.00
2023-04-11T13:13:49.460Z,12.30
2023-04-11T13:16:17.776Z,11.70
2023-04-11T13:18:45.929Z,11.20
2023-04-11T13:21:15.692Z,11.00
2023-04-11T13:23:43.897Z,10.80
2023-04-11T13:26:12.050Z,10.60
2023-04-11T13:28:40.163Z,10.40
2023-04-11T13:31:10.327Z,9.90
2023-04-11T13:33:40.486Z,9.60
2023-04-11T13:36:09.952Z,9.30
2023-04-11T13:38:39.597Z,8.80
2023-04-11T13:41:08.246Z,8.70
2023-04-11T13:43:36.388Z,8.50
2023-04-11T13:46:04.667Z,8.40
2023-04-11T13:48:32.910Z,8.40
2023-04-11T13:51:01.250Z,8.40
2023-04-11T13:53:29.532Z,8.30
2023-04-11T13:55:59.158Z,8.30
2023-04-11T13:58:27.317Z,8.20
2023-04-11T14:00:55.754Z,7.90
2023-04-11T14:03:24.922Z,7.60
2023-04-11T14:05:53.272Z,7.50
2023-04-11T14:08:21.625Z,7.30
2023-04-11T14:10:49.928Z,7.10
2023-04-11T14:13:20.626Z,6.90
2023-04-11T14:15:52.191Z,6.80
2023-04-11T14:18:33.612Z,6.70
2023-04-11T14:21:02.056Z,6.70
2023-04-11T14:23:30.736Z,6.60
2023-04-11T14:25:59.089Z,6.60
2023-04-11T14:28:29.060Z,6.60
2023-04-11T14:30:57.939Z,6.60
2023-04-11T14:33:26.488Z,6.60
2023-04-11T14:35:54.785Z,6.60
2023-04-11T14:38:23.108Z,6.60
2023-04-11T14:40:51.448Z,6.70
2023-04-11T14:43:19.828Z,6.80
2023-04-11T14:45:49.829Z,6.80
2023-04-11T14:48:18.193Z,6.90
2023-04-11T14:50:46.541Z,7.00
2023-04-11T14:53:14.883Z,7.10
2023-04-11T14:55:44.548Z,7.20
2023-04-11T14:58:13.000Z,7.40
2023-04-11T15:00:41.892Z,7.60
2023-04-11T15:03:12.456Z,7.70
2023-04-11T15:05:40.966Z,7.90
2023-04-11T15:08:09.990Z,8.00
2023-04-11T15:10:38.354Z,8.10
2023-04-11T15:13:08.929Z,8.30
2023-04-11T15:15:37.654Z,8.40
2023-04-11T15:18:28.053Z,8.40
2023-04-11T15:20:57.541Z,8.60
2023-04-11T15:23:26.120Z,8.80
2023-04-11T15:25:55.485Z,9.00
2023-04-11T15:28:24.412Z,9.20
2023-04-11T15:30:53.975Z,9.40
2023-04-11T15:33:24.436Z,9.40
2023-04-11T15:35:54.306Z,9.10
2023-04-11T15:38:23.062Z,9.10
2023-04-11T15:40:51.864Z,9.10
2023-04-11T15:43:20.643Z,9.10
2023-04-11T15:45:48.993Z,9.10
2023-04-11T15:48:17.400Z,8.90
2023-04-11T15:50:47.145Z,8.90
2023-04-11T15:53:15.507Z,8.80
2023-04-11T15:55:44.592Z,8.90
2023-04-11T15:58:13.033Z,8.90
2023-04-11T16:00:44.091Z,8.90
2023-04-11T16:03:13.036Z,8.90
2023-04-11T16:05:43.369Z,8.90
2023-04-11T16:08:13.273Z,8.90
2023-04-11T16:10:41.632Z,8.80
2023-04-11T16:13:10.705Z,8.60
2023-04-11T16:15:38.967Z,8.50
2023-04-11T16:18:07.391Z,8.40
2023-04-11T16:20:36.183Z,8.10
2023-04-11T16:23:04.461Z,8.00
2023-04-11T16:25:34.367Z,7.90
2023-04-11T16:28:02.822Z,7.60
2023-04-11T16:30:31.408Z,7.60
2023-04-11T16:32:59.709Z,7.70
2023-04-11T16:35:28.176Z,7.90
2023-04-11T16:37:56.612Z,7.90
2023-04-11T16:40:25.047Z,7.90
2023-04-11T16:42:54.940Z,7.90
2023-04-11T16:45:23.291Z,7.80
2023-04-11T16:47:51.622Z,7.70
2023-04-11T16:50:20.316Z,7.70
2023-04-11T16:52:48.771Z,7.70
2023-04-11T16:55:17.938Z,7.60
2023-04-11T16:57:46.379Z,7.70
2023-04-11T17:00:20.492Z,7.80
2023-04-11T17:02:49.231Z,7.80
2023-04-11T17:05:19.115Z,7.90
2023-04-11T17:07:47.788Z,7.80
2023-04-11T17:10:16.747Z,7.70
2023-04-11T17:12:45.408Z,7.80
2023-04-11T17:15:15.525Z,7.70
2023-04-11T17:17:44.522Z,7.60
2023-04-11T17:20:14.759Z,7.50
2023-04-11T17:22:44.498Z,7.50
2023-04-11T17:25:13.230Z,7.40
2023-04-11T17:27:42.045Z,7.40
2023-04-11T17:30:12.468Z,7.30
2023-04-11T17:32:42.303Z,7.30
2023-04-11T17:35:12.163Z,7.20
2023-04-11T17:37:40.842Z,7.10
2023-04-11T17:40:14.382Z,7.00
2023-04-11T17:42:42.763Z,6.90
2023-04-11T17:45:17.869Z,6.90
2023-04-11T17:47:48.758Z,6.90
2023-04-11T17:50:18.121Z,6.80
2023-04-11T17:52:47.500Z,6.70
2023-04-11T17:55:18.971Z,6.90
2023-04-11T17:57:49.133Z,6.80
2023-04-11T18:00:23.053Z,6.70
2023-04-11T18:02:54.931Z,6.60
2023-04-11T18:05:26.118Z,6.60
2023-04-11T18:07:57.384Z,6.60
2023-04-11T18:10:27.343Z,6.50
2023-04-11T18:12:57.539Z,6.50
2023-04-11T18:15:27.338Z,6.50
2023-04-11T18:17:57.204Z,6.40
2023-04-11T18:20:25.880Z,6.40
2023-04-11T18:22:56.166Z,6.40
2023-04-11T18:25:24.955Z,6.30
2023-04-11T18:27:53.241Z,6.30
2023-04-11T18:30:21.480Z,6.20
2023-04-11T18:32:51.737Z,6.30
2023-04-11T18:35:21.923Z,6.10
2023-04-11T18:37:50.195Z,6.10
2023-04-11T18:40:18.786Z,6.00
2023-04-11T18:42:50.436Z,6.00
2023-04-11T18:45:21.976Z,5.90
2023-04-11T18:47:51.085Z,6.00
2023-04-11T18:50:21.047Z,5.80
2023-04-11T18:52:53.027Z,5.80
2023-04-11T18:55:24.223Z,5.80
2023-04-11T18:57:56.039Z,5.70
2023-04-11T19:00:26.037Z,5.70
2023-04-11T19:02:54.477Z,5.70
2023-04-11T19:05:25.584Z,5.60
2023-04-11T19:07:53.872Z,5.60
2023-04-11T19:10:22.458Z,5.60
2023-04-11T19:12:50.812Z,5.60
2023-04-11T19:15:19.167Z,5.50
2023-04-11T19:17:47.555Z,5.50
2023-04-11T19:20:16.539Z,5.50
2023-04-11T19:22:46.637Z,5.50
2023-04-11T19:25:15.784Z,5.40
2023-04-11T19:27:44.464Z,5.40
2023-04-11T19:30:14.562Z,5.40
2023-04-11T19:32:46.126Z,5.30
2023-04-11T19:35:14.986Z,5.30
2023-04-11T19:37:43.280Z,5.20
2023-04-11T19:40:13.930Z,5.20
2023-04-11T19:42:43.080Z,5.20
2023-04-11T19:45:12.056Z,5.20
2023-04-11T19:47:41.134Z,5.20
2023-04-11T19:50:13.145Z,5.20
2023-04-11T19:52:42.151Z,5.10
2023-04-11T19:55:13.015Z,5.10
2023-04-11T19:57:43.749Z,5.10
2023-04-11T20:00:14.308Z,5.10
2023-04-11T20:02:45.906Z,5.10
2023-04-11T20:05:17.425Z,5.10
2023-04-11T20:07:45.963Z,5.00
2023-04-11T20:10:16.697Z,5.00
2023-04-11T20:12:45.074Z,5.00
2023-04-11T20:15:13.719Z,5.00
2023-04-11T20:17:43.725Z,5.00
2023-04-11T20:20:13.601Z,5.00
2023-04-11T20:22:44.801Z,4.90
2023-04-11T20:25:13.142Z,4.90
2023-04-11T20:27:43.599Z,4.90
2023-04-11T20:30:12.545Z,4.90
2023-04-11T20:32:41.519Z,4.90
2023-04-11T20:35:12.190Z,4.80
2023-04-11T20:37:41.374Z,4.80
2023-04-11T20:40:11.094Z,4.90
2023-04-11T20:42:42.346Z,4.90
2023-04-11T20:45:15.893Z,4.90
2023-04-11T20:47:46.249Z,4.80
2023-04-11T20:50:16.850Z,4.80
2023-04-11T20:52:46.578Z,4.80
2023-04-11T20:55:15.648Z,4.80
2023-04-11T20:57:44.671Z,4.80
2023-04-11T21:00:17.108Z,4.90
2023-04-11T21:02:47.732Z,4.80
2023-04-11T21:05:18.080Z,4.80
2023-04-11T21:07:46.437Z,4.90
2023-04-11T21:10:15.665Z,4.80
2023-04-11T21:12:51.068Z,4.80
2023-04-11T21:15:21.070Z,4.80
2023-04-11T21:17:50.191Z,4.80
2023-04-11T21:20:19.571Z,4.80
2023-04-11T21:22:48.339Z,4.80
2023-04-11T21:25:17.402Z,4.70
2023-04-11T21:27:45.719Z,4.70
2023-04-11T21:30:15.150Z,4.70
2023-04-11T21:32:44.664Z,4.70
2023-04-11T21:35:13.641Z,4.70
2023-04-11T21:37:42.106Z,4.70
2023-04-11T21:40:10.948Z,4.70
2023-04-11T21:42:39.264Z,4.70
2023-04-11T21:45:09.341Z,4.70
2023-04-11T21:47:37.530Z,4.70
2023-04-11T21:50:08.276Z,4.60
2023-04-11T21:52:36.444Z,4.70
2023-04-11T21:55:07.200Z,4.60
2023-04-11T21:57:36.767Z,4.60
2023-04-11T22:00:06.153Z,4.60
2023-04-11T22:02:34.359Z,4.60
2023-04-11T22:05:06.355Z,4.60
2023-04-11T22:07:39.527Z,4.60
2023-04-11T22:10:12.030Z,4.60
2023-04-11T22:12:40.302Z,4.60
2023-04-11T22:15:12.701Z,4.60
2023-04-11T22:17:43.625Z,4.50
2023-04-11T22:20:13.216Z,4.50
2023-04-11T22:22:42.875Z,4.40
2023-04-11T22:25:11.549Z,4.40
2023-04-11T22:27:39.848Z,4.40
2023-04-11T22:30:11.242Z,4.40
2023-04-11T22:32:39.552Z,4.40
2023-04-11T22:35:09.677Z,4.40
2023-04-11T22:37:38.020Z,4.40
2023-04-11T22:40:12.001Z,4.30
2023-04-11T22:42:40.478Z,4.30
2023-04-11T22:45:09.645Z,4.30
2023-04-11T22:47:38.203Z,4.30
2023-04-11T22:50:07.588Z,4.30
2023-04-11T22:52:37.996Z,4.30
2023-04-11T22:55:09.627Z,4.30
2023-04-11T22:57:38.134Z,4.20
2023-04-11T23:00:12.398Z,4.20
2023-04-11T23:02:41.131Z,4.20
2023-04-11T23:05:11.325Z,4.20
2023-04-11T23:07:39.694Z,4.10
2023-04-11T23:10:14.319Z,4.10
2023-04-11T23:12:44.745Z,4.00
2023-04-11T23:15:13.529Z,3.60
2023-04-11T23:17:41.983Z,4.00
2023-04-11T23:20:13.342Z,3.90
2023-04-11T23:22:43.961Z,3.90
2023-04-11T23:25:15.578Z,3.80
2023-04-11T23:27:45.242Z,3.90
2023-04-11T23:30:15.138Z,3.90
2023-04-11T23:32:43.769Z,3.80
2023-04-11T23:35:12.920Z,3.80
2023-04-11T23:37:43.423Z,3.90
2023-04-11T23:40:14.162Z,3.90
2023-04-11T23:42:43.223Z,3.90
2023-04-11T23:45:14.416Z,3.80
2023-04-11T23:47:42.845Z,3.80
2023-04-11T23:50:12.302Z,3.80
2023-04-11T23:52:41.565Z,3.80
2023-04-11T23:55:10.799Z,3.70
2023-04-11T23:58:23.015Z,3.70
